Time,TemperatureF,DewpointF,PressureIn,WindDirection,WindDirectionDegrees,WindSpeedMPH,WindSpeedGustMPH,Humidity,HourlyPrecipIn,Conditions,Clouds,dailyrainin,SolarRadiationWatts/m^2,SoftwareType,DateUTC
2013-06-17 00:02:00,79.0,71.0,-100.00,SSW,202,3.0,7.0,76,0.00,,,0.00,0.000000,,2013-06-17 05:02:00,
2013-06-17 00:12:00,79.0,71.0,-100.00,SSW,202,3.0,7.0,76,0.00,,,0.00,0.000000,,2013-06-17 05:12:00,
2013-06-17 00:22:00,79.0,71.0,-100.00,SSW,202,3.0,7.0,76,0.00,,,0.00,0.000000,,2013-06-17 05:22:00,
2013-06-17 00:32:00,78.0,71.0,-100.00,SSW,205,3.0,4.0,80,0.00,,,0.00,0.000000,,2013-06-17 05:32:00,
2013-06-17 00:53:00,78.0,71.0,-100.00,SSW,205,3.0,4.0,80,0.00,,,0.00,0.000000,,2013-06-17 05:53:00,
2013-06-17 01:02:00,78.0,71.0,-100.00,SSW,205,3.0,4.0,80,0.00,,,0.00,0.000000,,2013-06-17 06:02:00,
2013-06-17 01:12:00,78.0,71.0,-100.00,SSW,205,3.0,4.0,80,0.00,,,0.00,0.000000,,2013-06-17 06:12:00,
2013-06-17 01:22:00,78.0,71.0,-100.00,SSW,205,3.0,4.0,80,0.00,,,0.00,0.000000,,2013-06-17 06:22:00,
2013-06-17 01:32:00,78.0,71.0,-100.00,WSW,247,3.0,7.0,80,0.00,,,0.00,0.000000,,2013-06-17 06:32:00,
2013-06-17 01:53:00,78.0,71.0,-100.00,WSW,247,3.0,7.0,80,0.00,,,0.00,0.000000,,2013-06-17 06:53:00,
2013-06-17 02:02:00,78.0,71.0,-100.00,WSW,247,3.0,7.0,80,0.00,,,0.00,0.000000,,2013-06-17 07:02:00,
2013-06-17 02:12:00,78.0,71.0,-100.00,WSW,247,3.0,7.0,80,0.00,,,0.00,0.000000,,2013-06-17 07:12:00,
2013-06-17 02:22:00,78.0,71.0,-100.00,WSW,247,3.0,7.0,80,0.00,,,0.00,0.000000,,2013-06-17 07:22:00,
2013-06-17 02:32:00,75.0,71.0,-100.00,WSW,255,2.0,6.0,87,0.00,,,0.00,0.000000,,2013-06-17 07:32:00,
2013-06-17 02:53:00,75.0,71.0,-100.00,WSW,255,2.0,6.0,87,0.00,,,0.00,0.000000,,2013-06-17 07:53:00,
2013-06-17 03:02:00,75.0,71.0,-100.00,WSW,255,2.0,6.0,87,0.00,,,0.00,0.000000,,2013-06-17 08:02:00,
2013-06-17 03:11:00,75.0,71.0,-100.00,WSW,255,2.0,6.0,87,0.00,,,0.00,0.000000,,2013-06-17 08:11:00,
2013-06-17 03:22:00,75.0,71.0,-100.00,WSW,255,2.0,6.0,87,0.00,,,0.00,0.000000,,2013-06-17 08:22:00,
2013-06-17 03:32:00,75.0,71.0,-100.00,SSW,198,3.0,5.0,86,0.00,,,0.00,0.000000,,2013-06-17 08:32:00,
2013-06-17 03:53:00,75.0,71.0,-100.00,SSW,198,3.0,5.0,86,0.00,,,0.00,0.000000,,2013-06-17 08:53:00,
2013-06-17 04:02:00,75.0,71.0,-100.00,SSW,198,3.0,5.0,86,0.00,,,0.00,0.000000,,2013-06-17 09:02:00,
2013-06-17 04:12:00,75.0,71.0,-100.00,SSW,198,3.0,5.0,86,0.00,,,0.00,0.000000,,2013-06-17 09:12:00,
2013-06-17 04:22:00,75.0,71.0,-100.00,SSW,198,3.0,5.0,86,0.00,,,0.00,0.000000,,2013-06-17 09:22:00,
2013-06-17 04:32:00,75.0,71.0,-100.00,SSW,203,3.0,6.0,88,0.00,,,0.00,0.000000,,2013-06-17 09:32:00,
2013-06-17 04:53:00,75.0,71.0,-100.00,SSW,203,3.0,6.0,88,0.00,,,0.00,0.000000,,2013-06-17 09:53:00,
2013-06-17 05:02:00,75.0,71.0,-100.00,SSW,203,3.0,6.0,88,0.00,,,0.00,0.000000,,2013-06-17 10:02:00,
2013-06-17 05:12:00,75.0,71.0,-100.00,SSW,203,3.0,6.0,88,0.00,,,0.00,0.000000,,2013-06-17 10:12:00,
2013-06-17 05:22:00,75.0,71.0,-100.00,SSW,203,3.0,6.0,88,0.00,,,0.00,0.000000,,2013-06-17 10:22:00,
2013-06-17 05:32:00,74.0,71.0,-100.00,WSW,247,1.0,6.0,89,0.00,,,0.00,0.000000,,2013-06-17 10:32:00,
2013-06-17 05:54:00,74.0,71.0,-100.00,WSW,247,1.0,6.0,89,0.00,,,0.00,0.000000,,2013-06-17 10:54:00,
2013-06-17 06:02:00,74.0,71.0,-100.00,WSW,247,1.0,6.0,89,0.00,,,0.00,0.000000,,2013-06-17 11:02:00,
2013-06-17 06:12:00,74.0,71.0,-100.00,WSW,247,1.0,6.0,89,0.00,,,0.00,0.000000,,2013-06-17 11:12:00,
2013-06-17 06:23:00,74.0,71.0,-100.00,WSW,247,1.0,6.0,89,0.00,,,0.00,0.000000,,2013-06-17 11:23:00,
2013-06-17 06:32:00,73.0,71.0,-100.00,SW,214,1.0,4.0,92,0.00,,,0.00,4.000000,,2013-06-17 11:32:00,
2013-06-17 06:53:00,73.0,71.0,-100.00,SW,214,1.0,4.0,92,0.00,,,0.00,4.000000,,2013-06-17 11:53:00,
2013-06-17 07:02:00,73.0,71.0,-100.00,SW,214,1.0,4.0,92,0.00,,,0.00,4.000000,,2013-06-17 12:02:00,
2013-06-17 07:12:00,73.0,71.0,-100.00,SW,214,1.0,4.0,92,0.00,,,0.00,4.000000,,2013-06-17 12:12:00,
2013-06-17 07:23:00,73.0,71.0,-100.00,SW,214,1.0,4.0,92,0.00,,,0.00,4.000000,,2013-06-17 12:23:00,
2013-06-17 07:32:00,77.0,73.0,-100.00,SW,232,3.0,5.0,88,0.00,,,0.00,155.000000,,2013-06-17 12:32:00,
2013-06-17 07:53:00,77.0,73.0,-100.00,SW,232,3.0,5.0,88,0.00,,,0.00,155.000000,,2013-06-17 12:53:00,
2013-06-17 08:01:00,77.0,73.0,-100.00,SW,232,3.0,5.0,88,0.00,,,0.00,155.000000,,2013-06-17 13:01:00,
2013-06-17 08:12:00,77.0,73.0,-100.00,SW,232,3.0,5.0,88,0.00,,,0.00,155.000000,,2013-06-17 13:12:00,
2013-06-17 08:22:00,77.0,73.0,-100.00,SW,232,3.0,5.0,88,0.00,,,0.00,155.000000,,2013-06-17 13:22:00,
2013-06-17 08:32:00,81.0,73.0,-100.00,SW,229,6.0,11.0,77,0.00,,,0.00,360.000000,,2013-06-17 13:32:00,
2013-06-17 08:53:00,81.0,73.0,-100.00,SW,229,6.0,11.0,77,0.00,,,0.00,360.000000,,2013-06-17 13:53:00,
2013-06-17 09:02:00,81.0,73.0,-100.00,SW,229,6.0,11.0,77,0.00,,,0.00,360.000000,,2013-06-17 14:02:00,
2013-06-17 09:12:00,81.0,73.0,-100.00,SW,229,6.0,11.0,77,0.00,,,0.00,360.000000,,2013-06-17 14:12:00,
2013-06-17 09:22:00,81.0,73.0,-100.00,SW,229,6.0,11.0,77,0.00,,,0.00,360.000000,,2013-06-17 14:22:00,
2013-06-17 09:32:00,84.0,73.0,-100.00,WSW,248,8.0,14.0,69,0.00,,,0.00,527.000000,,2013-06-17 14:32:00,
2013-06-17 09:53:00,84.0,73.0,-100.00,WSW,248,8.0,14.0,69,0.00,,,0.00,527.000000,,2013-06-17 14:53:00,
2013-06-17 10:02:00,84.0,73.0,-100.00,WSW,248,8.0,14.0,69,0.00,,,0.00,527.000000,,2013-06-17 15:02:00,
2013-06-17 10:12:00,84.0,73.0,-100.00,WSW,248,8.0,14.0,69,0.00,,,0.00,527.000000,,2013-06-17 15:12:00,
2013-06-17 10:22:00,84.0,73.0,-100.00,WSW,248,8.0,14.0,69,0.00,,,0.00,527.000000,,2013-06-17 15:22:00,
2013-06-17 10:32:00,86.0,71.0,-100.00,WSW,256,7.0,17.0,61,0.00,,,0.00,562.000000,,2013-06-17 15:32:00,
2013-06-17 10:53:00,86.0,71.0,-100.00,WSW,256,7.0,17.0,61,0.00,,,0.00,562.000000,,2013-06-17 15:53:00,
2013-06-17 11:02:00,86.0,71.0,-100.00,WSW,256,7.0,17.0,61,0.00,,,0.00,562.000000,,2013-06-17 16:02:00,
2013-06-17 11:12:00,86.0,71.0,-100.00,WSW,256,7.0,17.0,61,0.00,,,0.00,562.000000,,2013-06-17 16:12:00,
2013-06-17 11:22:00,86.0,71.0,-100.00,WSW,256,7.0,17.0,61,0.00,,,0.00,562.000000,,2013-06-17 16:22:00,
2013-06-17 11:32:00,86.0,68.0,-100.00,WSW,248,8.0,14.0,56,0.00,,,0.00,774.000000,,2013-06-17 16:32:00,
2013-06-17 11:54:00,86.0,68.0,-100.00,WSW,248,8.0,14.0,56,0.00,,,0.00,774.000000,,2013-06-17 16:54:00,
2013-06-17 12:02:00,86.0,68.0,-100.00,WSW,248,8.0,14.0,56,0.00,,,0.00,774.000000,,2013-06-17 17:02:00,
2013-06-17 12:12:00,86.0,68.0,-100.00,WSW,248,8.0,14.0,56,0.00,,,0.00,774.000000,,2013-06-17 17:12:00,
2013-06-17 12:22:00,86.0,68.0,-100.00,WSW,248,8.0,14.0,56,0.00,,,0.00,774.000000,,2013-06-17 17:22:00,
2013-06-17 12:32:00,91.0,69.0,-100.00,West,262,8.0,16.0,49,0.00,,,0.00,733.000000,,2013-06-17 17:32:00,
2013-06-17 12:52:00,91.0,69.0,-100.00,West,262,8.0,16.0,49,0.00,,,0.00,733.000000,,2013-06-17 17:52:00,
2013-06-17 13:02:00,91.0,69.0,-100.00,West,262,8.0,16.0,49,0.00,,,0.00,733.000000,,2013-06-17 18:02:00,
2013-06-17 13:12:00,91.0,69.0,-100.00,West,262,8.0,16.0,49,0.00,,,0.00,733.000000,,2013-06-17 18:12:00,
2013-06-17 13:23:00,91.0,69.0,-100.00,West,262,8.0,16.0,49,0.00,,,0.00,733.000000,,2013-06-17 18:23:00,
2013-06-17 13:32:00,91.0,69.0,-100.00,West,280,6.0,13.0,49,0.00,,,0.00,761.000000,,2013-06-17 18:32:00,
2013-06-17 13:53:00,91.0,69.0,-100.00,West,280,6.0,13.0,49,0.00,,,0.00,761.000000,,2013-06-17 18:53:00,
2013-06-17 14:02:00,91.0,69.0,-100.00,West,280,6.0,13.0,49,0.00,,,0.00,761.000000,,2013-06-17 19:02:00,
2013-06-17 14:11:00,91.0,69.0,-100.00,West,280,6.0,13.0,49,0.00,,,0.00,761.000000,,2013-06-17 19:11:00,
2013-06-17 14:22:00,91.0,69.0,-100.00,West,280,6.0,13.0,49,0.00,,,0.00,761.000000,,2013-06-17 19:22:00,
2013-06-17 14:32:00,90.0,70.0,-100.00,West,262,7.0,14.0,52,0.00,,,-99.99,638.000000,,2013-06-17 19:32:00,
2013-06-17 14:54:00,90.0,70.0,-100.00,West,262,7.0,14.0,52,0.00,,,-99.99,638.000000,,2013-06-17 19:54:00,
2013-06-17 15:02:00,90.0,70.0,-100.00,West,262,7.0,14.0,52,0.00,,,-99.99,638.000000,,2013-06-17 20:02:00,
2013-06-17 15:11:00,90.0,70.0,-100.00,West,262,7.0,14.0,52,0.00,,,-99.99,638.000000,,2013-06-17 20:11:00,
2013-06-17 15:22:00,90.0,70.0,-100.00,West,262,7.0,14.0,52,0.00,,,-99.99,638.000000,,2013-06-17 20:22:00,
2013-06-17 15:32:00,92.0,68.0,-100.00,West,268,10.0,17.0,46,0.00,,,0.00,857.000000,,2013-06-17 20:32:00,
2013-06-17 15:52:00,92.0,68.0,-100.00,West,268,10.0,17.0,46,0.00,,,0.00,857.000000,,2013-06-17 20:52:00,
2013-06-17 16:01:00,92.0,68.0,-100.00,West,268,10.0,17.0,46,0.00,,,0.00,857.000000,,2013-06-17 21:01:00,
2013-06-17 16:12:00,92.0,68.0,-100.00,West,268,10.0,17.0,46,0.00,,,0.00,857.000000,,2013-06-17 21:12:00,
2013-06-17 16:22:00,92.0,68.0,-100.00,West,268,10.0,17.0,46,0.00,,,0.00,857.000000,,2013-06-17 21:22:00,
2013-06-17 17:32:00,92.0,70.0,-100.00,WSW,256,5.0,9.0,49,0.00,,,0.00,571.000000,,2013-06-17 22:32:00,
2013-06-17 18:02:00,92.0,70.0,-100.00,WSW,256,5.0,9.0,49,0.00,,,0.00,571.000000,,2013-06-17 23:02:00,
2013-06-17 18:11:00,92.0,70.0,-100.00,WSW,256,5.0,9.0,49,0.00,,,0.00,571.000000,,2013-06-17 23:11:00,
2013-06-17 18:22:00,92.0,70.0,-100.00,WSW,256,5.0,9.0,49,0.00,,,0.00,571.000000,,2013-06-17 23:22:00,
2013-06-17 18:32:00,93.0,70.0,-100.00,WNW,287,2.0,9.0,47,0.00,,,0.00,382.000000,,2013-06-17 23:32:00,
2013-06-17 18:53:00,93.0,70.0,-100.00,WNW,287,2.0,9.0,47,0.00,,,0.00,382.000000,,2013-06-17 23:53:00,
2013-06-17 19:01:00,93.0,70.0,-100.00,WNW,287,2.0,9.0,47,0.00,,,0.00,382.000000,,2013-06-18 00:01:00,
2013-06-17 19:12:00,93.0,70.0,-100.00,WNW,287,2.0,9.0,47,0.00,,,0.00,382.000000,,2013-06-18 00:12:00,
2013-06-17 19:22:00,93.0,70.0,-100.00,WNW,287,2.0,9.0,47,0.00,,,0.00,382.000000,,2013-06-18 00:22:00,
2013-06-17 19:32:00,89.0,70.0,-100.00,WNW,290,1.0,6.0,54,0.00,,,-99.99,186.000000,,2013-06-18 00:32:00,
2013-06-17 19:52:00,89.0,70.0,-100.00,WNW,290,1.0,6.0,54,0.00,,,-99.99,186.000000,,2013-06-18 00:52:00,
2013-06-17 20:01:00,89.0,70.0,-100.00,WNW,290,1.0,6.0,54,0.00,,,-99.99,186.000000,,2013-06-18 01:01:00,
2013-06-17 20:11:00,89.0,70.0,-100.00,WNW,290,1.0,6.0,54,0.00,,,-99.99,186.000000,,2013-06-18 01:11:00,
2013-06-17 20:23:00,89.0,70.0,-100.00,WNW,290,1.0,6.0,54,0.00,,,-99.99,186.000000,,2013-06-18 01:23:00,
2013-06-17 20:32:00,83.0,74.0,-100.00,SSW,194,0.0,2.0,74,0.00,,,0.00,24.000000,,2013-06-18 01:32:00,
2013-06-17 20:53:00,83.0,74.0,-100.00,SSW,194,0.0,2.0,74,0.00,,,0.00,24.000000,,2013-06-18 01:53:00,
2013-06-17 21:02:00,83.0,74.0,-100.00,SSW,194,0.0,2.0,74,0.00,,,0.00,24.000000,,2013-06-18 02:02:00,
2013-06-17 21:11:00,83.0,74.0,-100.00,SSW,194,0.0,2.0,74,0.00,,,0.00,24.000000,,2013-06-18 02:11:00,
2013-06-17 21:22:00,83.0,74.0,-100.00,SSW,194,0.0,2.0,74,0.00,,,0.00,24.000000,,2013-06-18 02:22:00,
2013-06-17 21:32:00,79.0,73.0,-100.00,SSW,212,0.0,3.0,83,0.00,,,-99.99,0.000000,,2013-06-18 02:32:00,
2013-06-17 21:53:00,79.0,73.0,-100.00,SSW,212,0.0,3.0,83,0.00,,,-99.99,0.000000,,2013-06-18 02:53:00,
2013-06-17 22:02:00,79.0,73.0,-100.00,SSW,212,0.0,3.0,83,0.00,,,-99.99,0.000000,,2013-06-18 03:02:00,
2013-06-17 22:12:00,79.0,73.0,-100.00,SSW,212,0.0,3.0,83,0.00,,,-99.99,0.000000,,2013-06-18 03:12:00,
2013-06-17 22:23:00,79.0,73.0,-100.00,SSW,212,0.0,3.0,83,0.00,,,-99.99,0.000000,,2013-06-18 03:23:00,
2013-06-17 22:32:00,80.0,72.0,-100.00,SW,217,2.0,6.0,77,0.00,,,0.00,0.000000,,2013-06-18 03:32:00,
2013-06-17 22:53:00,80.0,72.0,-100.00,SW,217,2.0,6.0,77,0.00,,,0.00,0.000000,,2013-06-18 03:53:00,
2013-06-17 23:02:00,80.0,72.0,-100.00,SW,217,2.0,6.0,77,0.00,,,0.00,0.000000,,2013-06-18 04:02:00,
2013-06-17 23:12:00,80.0,72.0,-100.00,SW,217,2.0,6.0,77,0.00,,,0.00,0.000000,,2013-06-18 04:12:00,
2013-06-17 23:23:00,80.0,72.0,-100.00,SW,217,2.0,6.0,77,0.00,,,0.00,0.000000,,2013-06-18 04:23:00,
2013-06-17 23:32:00,79.0,72.0,-100.00,WSW,248,3.0,5.0,79,0.00,,,0.00,0.000000,,2013-06-18 04:32:00,
2013-06-17 23:54:00,79.0,72.0,-100.00,WSW,248,3.0,5.0,79,0.00,,,0.00,0.000000,,2013-06-18 04:54:00,